sensor_id;sensor_type;location;lat;lon;timestamp;P1;durP1;ratioP1;P2;durP2;ratioP2
55015;SDS011;40919;43.236;21.590;2022-12-22T01:33:19;122.80;;;61.85;;
55015;SDS011;40919;43.236;21.590;2022-12-22T01:43:24;88.00;;;45.20;;
55015;SDS011;40919;43.236;21.590;2022-12-22T01:50:33;117.80;;;52.55;;
55015;SDS011;40919;43.236;21.590;2022-12-22T01:57:33;89.47;;;43.47;;
55015;SDS011;40919;43.236;21.590;2022-12-22T02:04:12;92.47;;;48.03;;
55015;SDS011;40919;43.236;21.590;2022-12-22T02:11:21;88.47;;;41.13;;
55015;SDS011;40919;43.236;21.590;2022-12-22T02:14:59;81.45;;;42.85;;
55015;SDS011;40919;43.236;21.590;2022-12-22T02:21:55;89.30;;;43.13;;
55015;SDS011;40919;43.236;21.590;2022-12-22T02:25:24;91.70;;;47.70;;
55015;SDS011;40919;43.236;21.590;2022-12-22T02:32:07;141.32;;;68.30;;
55015;SDS011;40919;43.236;21.590;2022-12-22T02:39:04;142.30;;;70.68;;
55015;SDS011;40919;43.236;21.590;2022-12-22T02:42:56;108.40;;;55.08;;
55015;SDS011;40919;43.236;21.590;2022-12-22T02:50:24;98.85;;;51.40;;
55015;SDS011;40919;43.236;21.590;2022-12-22T02:57:25;97.93;;;50.25;;
55015;SDS011;40919;43.236;21.590;2022-12-22T03:01:00;103.70;;;55.53;;
55015;SDS011;40919;43.236;21.590;2022-12-22T03:07:51;111.13;;;55.88;;
55015;SDS011;40919;43.236;21.590;2022-12-22T03:10:46;141.55;;;72.45;;
55015;SDS011;40919;43.236;21.590;2022-12-22T03:14:03;113.32;;;57.08;;
55015;SDS011;40919;43.236;21.590;2022-12-22T03:20:30;102.10;;;51.88;;
55015;SDS011;40919;43.236;21.590;2022-12-22T03:23:55;96.93;;;48.40;;
55015;SDS011;40919;43.236;21.590;2022-12-22T03:26:46;118.72;;;60.40;;
55015;SDS011;40919;43.236;21.590;2022-12-22T03:30:08;114.97;;;56.97;;
55015;SDS011;40919;43.236;21.590;2022-12-22T03:33:11;114.40;;;59.33;;
55015;SDS011;40919;43.236;21.590;2022-12-22T03:36:14;112.03;;;59.83;;
55015;SDS011;40919;43.236;21.590;2022-12-22T03:38:54;82.45;;;44.80;;
55015;SDS011;40919;43.236;21.590;2022-12-22T03:41:44;138.80;;;64.75;;
55015;SDS011;40919;43.236;21.590;2022-12-22T03:44:53;97.85;;;50.50;;
55015;SDS011;40919;43.236;21.590;2022-12-22T03:47:45;94.70;;;49.65;;
55015;SDS011;40919;43.236;21.590;2022-12-22T03:50:38;109.93;;;52.92;;
55015;SDS011;40919;43.236;21.590;2022-12-22T03:53:27;98.93;;;52.40;;
55015;SDS011;40919;43.236;21.590;2022-12-22T03:56:16;98.35;;;50.83;;
55015;SDS011;40919;43.236;21.590;2022-12-22T04:02:19;81.80;;;42.95;;
55015;SDS011;40919;43.236;21.590;2022-12-22T04:05:11;119.65;;;61.20;;
55015;SDS011;40919;43.236;21.590;2022-12-22T04:08:01;131.10;;;69.03;;
55015;SDS011;40919;43.236;21.590;2022-12-22T04:10:51;127.97;;;62.97;;
55015;SDS011;40919;43.236;21.590;2022-12-22T04:13:39;142.77;;;71.30;;
55015;SDS011;40919;43.236;21.590;2022-12-22T04:16:26;126.93;;;63.97;;
55015;SDS011;40919;43.236;21.590;2022-12-22T04:18:58;119.95;;;61.75;;
55015;SDS011;40919;43.236;21.590;2022-12-22T04:21:37;123.82;;;60.70;;
55015;SDS011;40919;43.236;21.590;2022-12-22T04:24:04;103.05;;;54.97;;
55015;SDS011;40919;43.236;21.590;2022-12-22T04:26:33;90.90;;;46.13;;
55015;SDS011;40919;43.236;21.590;2022-12-22T04:29:01;76.45;;;43.92;;
55015;SDS011;40919;43.236;21.590;2022-12-22T04:31:30;91.82;;;46.08;;
55015;SDS011;40919;43.236;21.590;2022-12-22T04:33:57;93.32;;;50.05;;
55015;SDS011;40919;43.236;21.590;2022-12-22T04:36:23;109.60;;;58.22;;
55015;SDS011;40919;43.236;21.590;2022-12-22T04:38:49;109.40;;;55.85;;
55015;SDS011;40919;43.236;21.590;2022-12-22T04:41:18;109.72;;;56.42;;
55015;SDS011;40919;43.236;21.590;2022-12-22T04:43:44;106.70;;;55.25;;
55015;SDS011;40919;43.236;21.590;2022-12-22T04:46:13;88.97;;;46.45;;
55015;SDS011;40919;43.236;21.590;2022-12-22T04:48:39;107.18;;;54.90;;
55015;SDS011;40919;43.236;21.590;2022-12-22T04:51:06;91.68;;;49.03;;
55015;SDS011;40919;43.236;21.590;2022-12-22T04:53:32;98.45;;;51.45;;
55015;SDS011;40919;43.236;21.590;2022-12-22T04:55:59;108.10;;;52.83;;
55015;SDS011;40919;43.236;21.590;2022-12-22T04:58:31;103.00;;;50.78;;
55015;SDS011;40919;43.236;21.590;2022-12-22T05:01:06;102.80;;;53.70;;
55015;SDS011;40919;43.236;21.590;2022-12-22T05:03:37;92.20;;;45.88;;
55015;SDS011;40919;43.236;21.590;2022-12-22T05:06:04;84.40;;;43.72;;
55015;SDS011;40919;43.236;21.590;2022-12-22T05:08:33;72.65;;;39.55;;
55015;SDS011;40919;43.236;21.590;2022-12-22T05:11:01;76.35;;;40.08;;
55015;SDS011;40919;43.236;21.590;2022-12-22T05:13:29;75.53;;;39.53;;
55015;SDS011;40919;43.236;21.590;2022-12-22T05:16:12;70.60;;;36.45;;
55015;SDS011;40919;43.236;21.590;2022-12-22T05:18:43;69.40;;;36.30;;
55015;SDS011;40919;43.236;21.590;2022-12-22T05:21:17;67.15;;;36.58;;
55015;SDS011;40919;43.236;21.590;2022-12-22T05:24:01;76.95;;;42.53;;
55015;SDS011;40919;43.236;21.590;2022-12-22T05:26:35;100.95;;;53.47;;
55015;SDS011;40919;43.236;21.590;2022-12-22T05:29:03;128.07;;;68.20;;
55015;SDS011;40919;43.236;21.590;2022-12-22T05:31:30;108.35;;;56.80;;
55015;SDS011;40919;43.236;21.590;2022-12-22T05:33:56;109.80;;;59.97;;
55015;SDS011;40919;43.236;21.590;2022-12-22T05:36:22;82.68;;;41.58;;
55015;SDS011;40919;43.236;21.590;2022-12-22T05:38:49;85.45;;;47.28;;
55015;SDS011;40919;43.236;21.590;2022-12-22T05:41:17;70.35;;;41.47;;
55015;SDS011;40919;43.236;21.590;2022-12-22T05:43:45;110.82;;;56.30;;
55015;SDS011;40919;43.236;21.590;2022-12-22T05:46:11;130.32;;;61.75;;
55015;SDS011;40919;43.236;21.590;2022-12-22T05:48:37;105.78;;;57.47;;
55015;SDS011;40919;43.236;21.590;2022-12-22T05:51:03;128.20;;;63.65;;
55015;SDS011;40919;43.236;21.590;2022-12-22T05:53:30;111.15;;;55.45;;
55015;SDS011;40919;43.236;21.590;2022-12-22T05:56:00;114.32;;;59.00;;
55015;SDS011;40919;43.236;21.590;2022-12-22T05:58:34;120.00;;;60.90;;
55015;SDS011;40919;43.236;21.590;2022-12-22T06:01:45;237.73;;;112.28;;
55015;SDS011;40919;43.236;21.590;2022-12-22T06:04:23;354.40;;;167.73;;
55015;SDS011;40919;43.236;21.590;2022-12-22T06:07:19;349.83;;;162.88;;
55015;SDS011;40919;43.236;21.590;2022-12-22T06:09:52;609.30;;;293.73;;
55015;SDS011;40919;43.236;21.590;2022-12-22T06:12:30;259.83;;;130.77;;
55015;SDS011;40919;43.236;21.590;2022-12-22T06:15:08;200.30;;;97.15;;
55015;SDS011;40919;43.236;21.590;2022-12-22T06:17:36;118.43;;;56.75;;
55015;SDS011;40919;43.236;21.590;2022-12-22T06:20:27;117.97;;;56.80;;
55015;SDS011;40919;43.236;21.590;2022-12-22T06:22:57;117.25;;;58.20;;
55015;SDS011;40919;43.236;21.590;2022-12-22T06:25:55;139.80;;;69.03;;
55015;SDS011;40919;43.236;21.590;2022-12-22T06:28:27;194.18;;;82.57;;
55015;SDS011;40919;43.236;21.590;2022-12-22T06:30:59;277.33;;;117.13;;
55015;SDS011;40919;43.236;21.590;2022-12-22T06:34:15;256.23;;;113.40;;
55015;SDS011;40919;43.236;21.590;2022-12-22T06:36:53;344.42;;;153.48;;
55015;SDS011;40919;43.236;21.590;2022-12-22T06:39:21;222.40;;;108.57;;
55015;SDS011;40919;43.236;21.590;2022-12-22T06:41:50;185.55;;;94.82;;
55015;SDS011;40919;43.236;21.590;2022-12-22T06:44:36;168.20;;;82.97;;
55015;SDS011;40919;43.236;21.590;2022-12-22T06:47:10;160.02;;;75.25;;
55015;SDS011;40919;43.236;21.590;2022-12-22T06:49:39;171.20;;;85.03;;
55015;SDS011;40919;43.236;21.590;2022-12-22T06:52:16;191.43;;;102.85;;
55015;SDS011;40919;43.236;21.590;2022-12-22T06:54:42;170.40;;;90.75;;
55015;SDS011;40919;43.236;21.590;2022-12-22T06:57:26;273.58;;;144.70;;
55015;SDS011;40919;43.236;21.590;2022-12-22T06:59:52;160.32;;;88.90;;
55015;SDS011;40919;43.236;21.590;2022-12-22T07:02:26;136.68;;;71.10;;
55015;SDS011;40919;43.236;21.590;2022-12-22T07:05:24;118.57;;;63.55;;
55015;SDS011;40919;43.236;21.590;2022-12-22T07:07:57;156.43;;;82.30;;
55015;SDS011;40919;43.236;21.590;2022-12-22T07:10:54;128.32;;;66.93;;
55015;SDS011;40919;43.236;21.590;2022-12-22T07:13:30;110.22;;;59.58;;
55015;SDS011;40919;43.236;21.590;2022-12-22T07:16:01;88.47;;;52.70;;
55015;SDS011;40919;43.236;21.590;2022-12-22T07:18:32;86.22;;;52.80;;
55015;SDS011;40919;43.236;21.590;2022-12-22T07:21:01;108.47;;;59.58;;
55015;SDS011;40919;43.236;21.590;2022-12-22T07:23:31;142.70;;;79.50;;
55015;SDS011;40919;43.236;21.590;2022-12-22T07:25:58;127.85;;;66.82;;
55015;SDS011;40919;43.236;21.590;2022-12-22T07:28:24;102.10;;;58.58;;
55015;SDS011;40919;43.236;21.590;2022-12-22T07:30:51;113.30;;;63.65;;
55015;SDS011;40919;43.236;21.590;2022-12-22T07:33:24;99.13;;;61.38;;
55015;SDS011;40919;43.236;21.590;2022-12-22T07:36:10;108.97;;;59.70;;
55015;SDS011;40919;43.236;21.590;2022-12-22T07:38:44;98.60;;;61.30;;
55015;SDS011;40919;43.236;21.590;2022-12-22T07:41:14;99.40;;;60.08;;
55015;SDS011;40919;43.236;21.590;2022-12-22T07:43:59;107.60;;;61.63;;
55015;SDS011;40919;43.236;21.590;2022-12-22T07:46:28;119.05;;;67.68;;
55015;SDS011;40919;43.236;21.590;2022-12-22T07:48:56;101.82;;;59.42;;
55015;SDS011;40919;43.236;21.590;2022-12-22T07:51:40;115.28;;;65.65;;
55015;SDS011;40919;43.236;21.590;2022-12-22T07:54:14;96.68;;;57.03;;
55015;SDS011;40919;43.236;21.590;2022-12-22T07:56:54;110.63;;;58.63;;
55015;SDS011;40919;43.236;21.590;2022-12-22T07:59:42;100.05;;;54.35;;
55015;SDS011;40919;43.236;21.590;2022-12-22T08:02:12;106.03;;;55.15;;
55015;SDS011;40919;43.236;21.590;2022-12-22T08:04:43;93.70;;;54.28;;
55015;SDS011;40919;43.236;21.590;2022-12-22T08:07:32;91.35;;;57.25;;
55015;SDS011;40919;43.236;21.590;2022-12-22T08:10:19;110.15;;;59.45;;
55015;SDS011;40919;43.236;21.590;2022-12-22T08:12:48;104.90;;;62.00;;
55015;SDS011;40919;43.236;21.590;2022-12-22T08:19:08;93.45;;;51.67;;
55015;SDS011;40919;43.236;21.590;2022-12-22T08:21:51;92.65;;;54.25;;
55015;SDS011;40919;43.236;21.590;2022-12-22T08:25:03;97.53;;;53.92;;
55015;SDS011;40919;43.236;21.590;2022-12-22T08:27:48;93.40;;;50.40;;
55015;SDS011;40919;43.236;21.590;2022-12-22T08:31:11;88.70;;;48.75;;
55015;SDS011;40919;43.236;21.590;2022-12-22T08:38:13;83.65;;;49.80;;
55015;SDS011;40919;43.236;21.590;2022-12-22T08:41:27;86.18;;;48.72;;
55015;SDS011;40919;43.236;21.590;2022-12-22T08:44:57;73.43;;;43.03;;
55015;SDS011;40919;43.236;21.590;2022-12-22T08:55:06;80.80;;;45.72;;
55015;SDS011;40919;43.236;21.590;2022-12-22T08:58:30;81.07;;;39.75;;
55015;SDS011;40919;43.236;21.590;2022-12-22T09:02:25;75.95;;;41.33;;
55015;SDS011;40919;43.236;21.590;2022-12-22T09:12:57;82.53;;;48.60;;
55015;SDS011;40919;43.236;21.590;2022-12-22T09:19:44;89.18;;;48.13;;
55015;SDS011;40919;43.236;21.590;2022-12-22T09:33:29;136.65;;;78.68;;
55015;SDS011;40919;43.236;21.590;2022-12-22T10:48:35;60.22;;;36.55;;
55015;SDS011;40919;43.236;21.590;2022-12-22T10:51:11;51.92;;;33.05;;
55015;SDS011;40919;43.236;21.590;2022-12-22T10:53:50;61.28;;;36.47;;
55015;SDS011;40919;43.236;21.590;2022-12-22T10:56:28;58.75;;;36.70;;
55015;SDS011;40919;43.236;21.590;2022-12-22T11:01:37;58.67;;;33.42;;
55015;SDS011;40919;43.236;21.590;2022-12-22T11:04:22;55.00;;;33.75;;
55015;SDS011;40919;43.236;21.590;2022-12-22T11:06:51;58.40;;;34.95;;
55015;SDS011;40919;43.236;21.590;2022-12-22T11:09:17;59.80;;;33.00;;
55015;SDS011;40919;43.236;21.590;2022-12-22T11:11:48;63.42;;;38.85;;
55015;SDS011;40919;43.236;21.590;2022-12-22T11:24:16;55.50;;;30.05;;
55015;SDS011;40919;43.236;21.590;2022-12-22T11:34:34;54.85;;;30.20;;
55015;SDS011;40919;43.236;21.590;2022-12-22T11:39:55;62.92;;;36.03;;
55015;SDS011;40919;43.236;21.590;2022-12-22T11:45:20;61.28;;;34.42;;
55015;SDS011;40919;43.236;21.590;2022-12-22T11:48:57;62.23;;;38.37;;
55015;SDS011;40919;43.236;21.590;2022-12-22T11:56:51;57.53;;;35.28;;
55015;SDS011;40919;43.236;21.590;2022-12-22T12:10:24;56.50;;;32.17;;
55015;SDS011;40919;43.236;21.590;2022-12-22T12:13:36;64.90;;;37.42;;
55015;SDS011;40919;43.236;21.590;2022-12-22T12:21:01;87.53;;;50.28;;
55015;SDS011;40919;43.236;21.590;2022-12-22T12:31:18;56.17;;;31.88;;
55015;SDS011;40919;43.236;21.590;2022-12-22T12:33:53;65.07;;;39.67;;
55015;SDS011;40919;43.236;21.590;2022-12-22T12:38:57;61.47;;;35.83;;
55015;SDS011;40919;43.236;21.590;2022-12-22T12:41:32;57.10;;;35.20;;
55015;SDS011;40919;43.236;21.590;2022-12-22T12:44:01;56.05;;;35.88;;
55015;SDS011;40919;43.236;21.590;2022-12-22T12:51:57;53.35;;;33.90;;
55015;SDS011;40919;43.236;21.590;2022-12-22T12:57:11;99.97;;;64.90;;
55015;SDS011;40919;43.236;21.590;2022-12-22T12:59:46;48.17;;;30.30;;
55015;SDS011;40919;43.236;21.590;2022-12-22T13:10:22;58.63;;;36.47;;
55015;SDS011;40919;43.236;21.590;2022-12-22T13:12:50;53.97;;;37.30;;
55015;SDS011;40919;43.236;21.590;2022-12-22T13:15:31;62.03;;;37.53;;
55015;SDS011;40919;43.236;21.590;2022-12-22T13:18:01;63.95;;;43.28;;
55015;SDS011;40919;43.236;21.590;2022-12-22T13:20:34;58.80;;;38.92;;
55015;SDS011;40919;43.236;21.590;2022-12-22T13:23:02;66.38;;;40.58;;
55015;SDS011;40919;43.236;21.590;2022-12-22T13:25:52;60.63;;;41.80;;
55015;SDS011;40919;43.236;21.590;2022-12-22T13:28:15;69.00;;;41.33;;
55015;SDS011;40919;43.236;21.590;2022-12-22T13:33:48;77.35;;;46.10;;
55015;SDS011;40919;43.236;21.590;2022-12-22T13:36:17;82.97;;;54.58;;
55015;SDS011;40919;43.236;21.590;2022-12-22T13:38:45;91.50;;;61.63;;
55015;SDS011;40919;43.236;21.590;2022-12-22T13:41:15;83.15;;;58.90;;
55015;SDS011;40919;43.236;21.590;2022-12-22T13:43:42;92.40;;;57.20;;
55015;SDS011;40919;43.236;21.590;2022-12-22T13:46:09;94.70;;;62.38;;
55015;SDS011;40919;43.236;21.590;2022-12-22T13:48:43;88.43;;;58.63;;
55015;SDS011;40919;43.236;21.590;2022-12-22T13:51:16;84.38;;;57.10;;
55015;SDS011;40919;43.236;21.590;2022-12-22T13:53:47;86.28;;;58.30;;
55015;SDS011;40919;43.236;21.590;2022-12-22T13:56:17;93.75;;;63.30;;
55015;SDS011;40919;43.236;21.590;2022-12-22T13:59:04;114.47;;;70.32;;
55015;SDS011;40919;43.236;21.590;2022-12-22T14:01:48;107.57;;;66.88;;
55015;SDS011;40919;43.236;21.590;2022-12-22T14:04:14;113.18;;;76.55;;
55015;SDS011;40919;43.236;21.590;2022-12-22T14:06:40;97.53;;;64.35;;
55015;SDS011;40919;43.236;21.590;2022-12-22T14:11:39;110.53;;;77.15;;
55015;SDS011;40919;43.236;21.590;2022-12-22T14:14:14;105.20;;;77.15;;
55015;SDS011;40919;43.236;21.590;2022-12-22T14:16:42;100.93;;;71.53;;
55015;SDS011;40919;43.236;21.590;2022-12-22T14:19:10;110.32;;;79.03;;
55015;SDS011;40919;43.236;21.590;2022-12-22T14:21:38;105.18;;;69.13;;
55015;SDS011;40919;43.236;21.590;2022-12-22T14:24:05;106.68;;;70.38;;
55015;SDS011;40919;43.236;21.590;2022-12-22T14:26:31;100.90;;;64.75;;
55015;SDS011;40919;43.236;21.590;2022-12-22T14:28:57;124.47;;;78.38;;
55015;SDS011;40919;43.236;21.590;2022-12-22T14:31:23;121.55;;;79.68;;
55015;SDS011;40919;43.236;21.590;2022-12-22T14:33:59;115.22;;;76.35;;
55015;SDS011;40919;43.236;21.590;2022-12-22T14:36:34;128.98;;;80.60;;
55015;SDS011;40919;43.236;21.590;2022-12-22T14:39:07;105.30;;;66.45;;
55015;SDS011;40919;43.236;21.590;2022-12-22T14:41:39;100.75;;;64.47;;
55015;SDS011;40919;43.236;21.590;2022-12-22T14:47:00;77.07;;;49.78;;
55015;SDS011;40919;43.236;21.590;2022-12-22T14:52:45;74.03;;;44.58;;
55015;SDS011;40919;43.236;21.590;2022-12-22T15:00:48;72.95;;;44.33;;
55015;SDS011;40919;43.236;21.590;2022-12-22T15:03:42;80.10;;;49.88;;
55015;SDS011;40919;43.236;21.590;2022-12-22T15:08:53;94.10;;;53.38;;
55015;SDS011;40919;43.236;21.590;2022-12-22T15:14:14;100.03;;;62.17;;
55015;SDS011;40919;43.236;21.590;2022-12-22T15:16:46;102.25;;;62.00;;
55015;SDS011;40919;43.236;21.590;2022-12-22T15:19:16;122.40;;;76.72;;
55015;SDS011;40919;43.236;21.590;2022-12-22T15:21:46;135.32;;;85.50;;
55015;SDS011;40919;43.236;21.590;2022-12-22T15:24:14;118.95;;;78.55;;
55015;SDS011;40919;43.236;21.590;2022-12-22T15:26:41;130.93;;;84.57;;
55015;SDS011;40919;43.236;21.590;2022-12-22T15:29:08;178.52;;;108.38;;
55015;SDS011;40919;43.236;21.590;2022-12-22T15:31:34;186.45;;;116.90;;
55015;SDS011;40919;43.236;21.590;2022-12-22T15:34:02;178.10;;;110.22;;
55015;SDS011;40919;43.236;21.590;2022-12-22T15:36:30;171.20;;;111.50;;
55015;SDS011;40919;43.236;21.590;2022-12-22T15:38:56;209.77;;;128.68;;
55015;SDS011;40919;43.236;21.590;2022-12-22T15:41:21;228.30;;;140.50;;
55015;SDS011;40919;43.236;21.590;2022-12-22T15:43:48;243.93;;;145.18;;
55015;SDS011;40919;43.236;21.590;2022-12-22T15:46:14;215.27;;;135.23;;
55015;SDS011;40919;43.236;21.590;2022-12-22T15:48:41;211.10;;;131.55;;
55015;SDS011;40919;43.236;21.590;2022-12-22T15:51:10;192.30;;;121.18;;
55015;SDS011;40919;43.236;21.590;2022-12-22T15:53:44;204.45;;;127.75;;
55015;SDS011;40919;43.236;21.590;2022-12-22T15:56:11;217.45;;;129.85;;
55015;SDS011;40919;43.236;21.590;2022-12-22T16:01:09;338.40;;;180.43;;
55015;SDS011;40919;43.236;21.590;2022-12-22T16:03:36;327.17;;;191.73;;
55015;SDS011;40919;43.236;21.590;2022-12-22T16:06:02;315.67;;;183.65;;
55015;SDS011;40919;43.236;21.590;2022-12-22T16:08:29;291.40;;;172.80;;
55015;SDS011;40919;43.236;21.590;2022-12-22T16:11:00;296.23;;;173.50;;
55015;SDS011;40919;43.236;21.590;2022-12-22T16:13:27;262.13;;;160.10;;
55015;SDS011;40919;43.236;21.590;2022-12-22T16:15:54;257.33;;;153.10;;
55015;SDS011;40919;43.236;21.590;2022-12-22T16:18:20;311.75;;;167.50;;
55015;SDS011;40919;43.236;21.590;2022-12-22T16:20:46;246.93;;;148.77;;
55015;SDS011;40919;43.236;21.590;2022-12-22T16:23:23;279.83;;;167.00;;
55015;SDS011;40919;43.236;21.590;2022-12-22T16:25:50;227.43;;;142.82;;
55015;SDS011;40919;43.236;21.590;2022-12-22T16:28:19;214.60;;;131.70;;
55015;SDS011;40919;43.236;21.590;2022-12-22T16:30:47;237.57;;;137.07;;
55015;SDS011;40919;43.236;21.590;2022-12-22T16:33:13;404.30;;;198.30;;
55015;SDS011;40919;43.236;21.590;2022-12-22T16:35:39;300.92;;;156.68;;
55015;SDS011;40919;43.236;21.590;2022-12-22T16:38:06;228.32;;;126.03;;
55015;SDS011;40919;43.236;21.590;2022-12-22T16:40:33;200.02;;;112.32;;
55015;SDS011;40919;43.236;21.590;2022-12-22T16:43:15;204.05;;;116.53;;
55015;SDS011;40919;43.236;21.590;2022-12-22T16:45:42;258.58;;;145.48;;
55015;SDS011;40919;43.236;21.590;2022-12-22T16:48:11;317.05;;;186.55;;
55015;SDS011;40919;43.236;21.590;2022-12-22T16:50:52;358.30;;;217.93;;
55015;SDS011;40919;43.236;21.590;2022-12-22T16:53:18;341.23;;;208.40;;
55015;SDS011;40919;43.236;21.590;2022-12-22T16:55:44;339.55;;;204.52;;
55015;SDS011;40919;43.236;21.590;2022-12-22T16:58:10;345.08;;;208.73;;
55015;SDS011;40919;43.236;21.590;2022-12-22T17:00:36;314.55;;;193.65;;
55015;SDS011;40919;43.236;21.590;2022-12-22T17:03:11;325.67;;;192.05;;
55015;SDS011;40919;43.236;21.590;2022-12-22T17:05:46;267.70;;;167.30;;
55015;SDS011;40919;43.236;21.590;2022-12-22T17:08:15;245.57;;;150.57;;
55015;SDS011;40919;43.236;21.590;2022-12-22T17:10:47;215.90;;;132.30;;
55015;SDS011;40919;43.236;21.590;2022-12-22T17:13:14;181.45;;;112.68;;
55015;SDS011;40919;43.236;21.590;2022-12-22T17:15:40;170.90;;;106.80;;
55015;SDS011;40919;43.236;21.590;2022-12-22T17:18:14;172.13;;;104.57;;
55015;SDS011;40919;43.236;21.590;2022-12-22T17:20:40;180.38;;;109.90;;
55015;SDS011;40919;43.236;21.590;2022-12-22T17:23:09;178.00;;;114.07;;
55015;SDS011;40919;43.236;21.590;2022-12-22T17:25:50;167.95;;;105.53;;
55015;SDS011;40919;43.236;21.590;2022-12-22T17:28:16;181.27;;;116.88;;
55015;SDS011;40919;43.236;21.590;2022-12-22T17:30:42;186.55;;;118.93;;
55015;SDS011;40919;43.236;21.590;2022-12-22T17:33:13;225.48;;;132.13;;
55015;SDS011;40919;43.236;21.590;2022-12-22T17:35:40;246.85;;;148.57;;
55015;SDS011;40919;43.236;21.590;2022-12-22T17:38:14;341.45;;;213.48;;
55015;SDS011;40919;43.236;21.590;2022-12-22T17:40:42;392.92;;;242.60;;
55015;SDS011;40919;43.236;21.590;2022-12-22T17:43:12;338.95;;;226.43;;
55015;SDS011;40919;43.236;21.590;2022-12-22T17:45:39;337.10;;;223.85;;
55015;SDS011;40919;43.236;21.590;2022-12-22T17:48:06;332.23;;;217.52;;
55015;SDS011;40919;43.236;21.590;2022-12-22T17:50:32;366.55;;;234.20;;
55015;SDS011;40919;43.236;21.590;2022-12-22T17:52:59;465.50;;;297.17;;
55015;SDS011;40919;43.236;21.590;2022-12-22T17:55:26;434.65;;;276.65;;
55015;SDS011;40919;43.236;21.590;2022-12-22T17:57:54;419.25;;;267.33;;
55015;SDS011;40919;43.236;21.590;2022-12-22T18:02:50;499.02;;;315.55;;
55015;SDS011;40919;43.236;21.590;2022-12-22T18:05:17;507.27;;;332.75;;
55015;SDS011;40919;43.236;21.590;2022-12-22T18:07:46;521.97;;;346.52;;
55015;SDS011;40919;43.236;21.590;2022-12-22T18:12:45;493.30;;;321.70;;
55015;SDS011;40919;43.236;21.590;2022-12-22T18:15:14;487.33;;;320.88;;
55015;SDS011;40919;43.236;21.590;2022-12-22T18:17:41;357.95;;;236.23;;
55015;SDS011;40919;43.236;21.590;2022-12-22T18:20:14;363.17;;;236.93;;
55015;SDS011;40919;43.236;21.590;2022-12-22T18:22:46;349.33;;;223.27;;
55015;SDS011;40919;43.236;21.590;2022-12-22T18:25:22;312.55;;;201.00;;
55015;SDS011;40919;43.236;21.590;2022-12-22T18:27:50;197.68;;;125.05;;
55015;SDS011;40919;43.236;21.590;2022-12-22T18:30:20;157.75;;;103.07;;
55015;SDS011;40919;43.236;21.590;2022-12-22T18:32:51;146.90;;;86.65;;
55015;SDS011;40919;43.236;21.590;2022-12-22T18:35:18;146.63;;;85.55;;
55015;SDS011;40919;43.236;21.590;2022-12-22T18:37:46;190.93;;;119.25;;
55015;SDS011;40919;43.236;21.590;2022-12-22T18:40:20;223.65;;;141.38;;
55015;SDS011;40919;43.236;21.590;2022-12-22T18:42:49;178.65;;;111.65;;
55015;SDS011;40919;43.236;21.590;2022-12-22T18:45:16;143.35;;;88.30;;
55015;SDS011;40919;43.236;21.590;2022-12-22T18:47:42;144.90;;;93.15;;
55015;SDS011;40919;43.236;21.590;2022-12-22T18:50:12;130.07;;;84.53;;
55015;SDS011;40919;43.236;21.590;2022-12-22T18:52:43;135.45;;;85.93;;
55015;SDS011;40919;43.236;21.590;2022-12-22T18:55:19;159.18;;;102.00;;
55015;SDS011;40919;43.236;21.590;2022-12-22T18:57:50;219.02;;;127.15;;
55015;SDS011;40919;43.236;21.590;2022-12-22T19:00:18;208.57;;;117.30;;
55015;SDS011;40919;43.236;21.590;2022-12-22T19:02:50;171.87;;;102.37;;
55015;SDS011;40919;43.236;21.590;2022-12-22T19:05:18;175.35;;;108.35;;
55015;SDS011;40919;43.236;21.590;2022-12-22T19:07:52;191.65;;;119.53;;
55015;SDS011;40919;43.236;21.590;2022-12-22T19:10:20;206.90;;;122.72;;
55015;SDS011;40919;43.236;21.590;2022-12-22T19:12:54;196.35;;;119.75;;
55015;SDS011;40919;43.236;21.590;2022-12-22T19:15:35;188.02;;;118.63;;
55015;SDS011;40919;43.236;21.590;2022-12-22T19:18:05;202.85;;;125.75;;
55015;SDS011;40919;43.236;21.590;2022-12-22T19:20:31;263.85;;;160.82;;
55015;SDS011;40919;43.236;21.590;2022-12-22T19:22:57;242.63;;;153.18;;
55015;SDS011;40919;43.236;21.590;2022-12-22T19:25:28;265.63;;;163.60;;
55015;SDS011;40919;43.236;21.590;2022-12-22T19:27:56;263.50;;;158.18;;
55015;SDS011;40919;43.236;21.590;2022-12-22T19:30:45;268.67;;;166.10;;
55015;SDS011;40919;43.236;21.590;2022-12-22T19:33:16;229.52;;;144.85;;
55015;SDS011;40919;43.236;21.590;2022-12-22T19:35:47;192.88;;;121.15;;
55015;SDS011;40919;43.236;21.590;2022-12-22T19:38:17;169.57;;;105.78;;
55015;SDS011;40919;43.236;21.590;2022-12-22T19:40:45;151.50;;;99.68;;
55015;SDS011;40919;43.236;21.590;2022-12-22T19:43:13;142.55;;;92.93;;
55015;SDS011;40919;43.236;21.590;2022-12-22T19:45:38;137.70;;;86.13;;
55015;SDS011;40919;43.236;21.590;2022-12-22T19:48:05;135.07;;;86.05;;
55015;SDS011;40919;43.236;21.590;2022-12-22T19:50:45;154.93;;;97.32;;
55015;SDS011;40919;43.236;21.590;2022-12-22T19:53:12;183.38;;;108.68;;
55015;SDS011;40919;43.236;21.590;2022-12-22T19:55:42;305.35;;;168.70;;
55015;SDS011;40919;43.236;21.590;2022-12-22T19:58:20;277.07;;;164.00;;
55015;SDS011;40919;43.236;21.590;2022-12-22T20:01:00;283.70;;;170.52;;
55015;SDS011;40919;43.236;21.590;2022-12-22T20:03:26;288.90;;;174.57;;
55015;SDS011;40919;43.236;21.590;2022-12-22T20:05:51;306.15;;;192.57;;
55015;SDS011;40919;43.236;21.590;2022-12-22T20:08:18;278.13;;;175.75;;
55015;SDS011;40919;43.236;21.590;2022-12-22T20:10:44;240.82;;;146.90;;
55015;SDS011;40919;43.236;21.590;2022-12-22T20:13:14;235.40;;;142.27;;
55015;SDS011;40919;43.236;21.590;2022-12-22T20:15:43;220.88;;;132.77;;
55015;SDS011;40919;43.236;21.590;2022-12-22T20:20:40;226.15;;;131.32;;
55015;SDS011;40919;43.236;21.590;2022-12-22T20:23:15;225.05;;;141.32;;
55015;SDS011;40919;43.236;21.590;2022-12-22T20:25:45;309.23;;;193.57;;
55015;SDS011;40919;43.236;21.590;2022-12-22T20:28:20;247.75;;;151.88;;
55015;SDS011;40919;43.236;21.590;2022-12-22T20:30:48;218.20;;;137.40;;
55015;SDS011;40919;43.236;21.590;2022-12-22T20:33:15;189.68;;;118.70;;
55015;SDS011;40919;43.236;21.590;2022-12-22T20:35:42;165.35;;;96.97;;
55015;SDS011;40919;43.236;21.590;2022-12-22T20:38:20;125.05;;;74.25;;
55015;SDS011;40919;43.236;21.590;2022-12-22T20:40:58;122.97;;;72.68;;
55015;SDS011;40919;43.236;21.590;2022-12-22T20:43:25;126.22;;;71.70;;
55015;SDS011;40919;43.236;21.590;2022-12-22T20:45:52;131.90;;;74.38;;
55015;SDS011;40919;43.236;21.590;2022-12-22T20:48:31;148.98;;;79.25;;
55015;SDS011;40919;43.236;21.590;2022-12-22T20:51:09;142.73;;;82.43;;